Arvada, CO

1:52 PM MST on November 21, 2014 (GMT -0700)
Glen Ellen | Change Station
CLOSE
Current Station
Personal Weather Station
Location: Arvada, CO
Elevation: 5377 ft
Nearby Weather Stations

Elev 5377 ft 39.80 °N, 105.09 °W | Updated 12 minutes ago

Partly Cloudy
Partly Cloudy
49.7 °F
Feels Like 50 °F
N
0.0
Wind Variable Wind from North
Gusts 0.0 mph

Today
High -- | Low -- °F
--% Chance of Precip.
Yesterday
High -- | Low -- °F
Precip. -- in
6:51 AM 4:40 PM
Waning Crescent, 0% visible
Pressure 29.91 in
Visibility 30.0 miles
Clouds Scattered Clouds 12000 ft
Mostly Cloudy 20000 ft
Windchill 50 °F
Dew Point 25 °F
Humidity 38%
Rainfall 0.00 in
Snow Depth Not available.
UV 2 out of 12
Pollen .10 out of 12
Air Quality Not available.
Flu Activity Not available.
METAR KBJC 211953Z 00000KT 30SM SCT120 BKN200 13/M07 A2991

More Conditions Fewer Conditions

Pressure 29.91 in
Visibility 30.0 miles
Clouds Scattered Clouds 12000 ft
Mostly Cloudy 20000 ft
Windchill 50 °F
Dew Point 25 °F
Humidity 38%
Rainfall 0.00 in
Snow Depth Not available.
UV 2 out of 12
Pollen .10 out of 12
Air Quality Not available.
Flu Activity Not available.
METAR KBJC 211953Z 00000KT 30SM SCT120 BKN200 13/M07 A2991

More Conditions Fewer Conditions

10-Day Weather Forecast

Almanac

Astronomy

Nov. 21, 2014 Rise Set
Actual Time
Civil Twilight
Nautical Twilight
Astronomical Twilight
Moon
Length of Visible Light
Length of Day
Tomorrow will be .
, % of the Moon is Illuminated

Today's Extremes

State Highs State Lows

Community

WunderPhotos

Upload Photos

1,772,713 photos uploaded!

WunderBlogs® & News

Nearby

Air Quality

  Air Quality AQ Index Pollutant
Not available.

Snow Depth

Station Depth Elevation

Earthquake Activity

City Distance Mag. Time & Date
Minimum magnitude displayed is 2.5.

Coastal Water Temperatures

Place Temperature

Nearby Weather Stations